Time;durP1;ratioP1;P1;durP2;ratioP2;P2;SDS_P1;SDS_P2;PMS_P1;PMS_P2;Temp;Humidity;BMP_temperature;BMP_pressure;BME280_temperature;BME280_humidity;BME280_pressure;Samples;Min_cycle;Max_cycle;Signal;HPM_P1;HPM_P2
2023/05/04 00:01:48;;;;;;;5.83;3.83;;;9.80;99.90;;;;;;5094808;28;20895;-67
2023/05/04 00:04:15;;;;;;;4.77;3.40;;;9.80;99.90;;;;;;5094358;28;20564;-67
2023/05/04 00:06:42;;;;;;;5.13;3.80;;;9.90;99.90;;;;;;5094062;28;20457;-67
2023/05/04 00:09:08;;;;;;;7.97;4.27;;;9.80;99.90;;;;;;5094117;28;20489;-67
2023/05/04 00:11:35;;;;;;;8.30;3.63;;;9.80;99.90;;;;;;5096749;28;20827;-65
2023/05/04 00:14:02;;;;;;;10.70;3.97;;;9.70;99.90;;;;;;5097282;28;20922;-66
2023/05/04 00:16:30;;;;;;;5.80;3.27;;;9.70;99.90;;;;;;5097695;28;20507;-66
2023/05/04 00:18:57;;;;;;;7.30;4.30;;;9.70;99.90;;;;;;5097655;28;20930;-66
2023/05/04 00:21:24;;;;;;;6.03;3.73;;;9.60;99.90;;;;;;5098089;28;20450;-66
2023/05/04 00:23:51;;;;;;;7.70;4.20;;;9.50;99.90;;;;;;5098374;28;20865;-67
2023/05/04 00:26:18;;;;;;;6.43;4.17;;;9.30;99.90;;;;;;5098415;28;20459;-67
2023/05/04 00:28:45;;;;;;;8.93;4.40;;;9.30;99.90;;;;;;5097855;28;20453;-67
2023/05/04 00:31:11;;;;;;;8.27;4.47;;;9.30;99.90;;;;;;5097885;28;20870;-67
2023/05/04 00:33:40;;;;;;;7.57;3.87;;;9.30;99.90;;;;;;5097710;28;20463;-67
2023/05/04 00:36:07;;;;;;;9.23;4.50;;;9.30;99.90;;;;;;5097458;28;20957;-67
2023/05/04 00:38:46;;;;;;;7.37;3.40;;;9.30;99.90;;;;;;5097406;28;20551;-67
2023/05/04 00:41:13;;;;;;;5.10;4.10;;;9.10;99.90;;;;;;5098253;28;20437;-66
2023/05/04 00:43:40;;;;;;;5.93;4.03;;;9.10;99.90;;;;;;5097356;28;20506;-66
2023/05/04 00:46:07;;;;;;;7.57;3.73;;;9.10;99.90;;;;;;5097147;28;20780;-66
2023/05/04 00:48:35;;;;;;;8.13;4.03;;;9.10;99.90;;;;;;5097406;28;20768;-66
2023/05/04 00:51:04;;;;;;;7.30;3.90;;;9.00;99.90;;;;;;5097048;28;20468;-66
2023/05/04 00:53:31;;;;;;;8.33;3.90;;;9.00;99.90;;;;;;5097119;28;20544;-67
2023/05/04 00:55:58;;;;;;;9.50;3.80;;;9.00;99.90;;;;;;5097177;28;20812;-66
2023/05/04 00:58:25;;;;;;;7.90;4.10;;;9.10;99.90;;;;;;5096916;28;20463;-67
2023/05/04 01:00:52;;;;;;;6.30;4.60;;;9.10;99.90;;;;;;5096546;28;20889;-67
2023/05/04 01:03:19;;;;;;;6.20;3.53;;;9.10;99.90;;;;;;5096458;28;20457;-66
2023/05/04 01:06:01;;;;;;;7.30;4.17;;;9.10;99.90;;;;;;5096654;28;20540;-66
2023/05/04 01:08:32;;;;;;;6.47;3.73;;;9.10;99.90;;;;;;5096719;28;20434;-66
2023/05/04 01:11:03;;;;;;;4.73;3.83;;;9.10;99.90;;;;;;5096949;28;20442;-66
2023/05/04 01:13:34;;;;;;;6.37;3.47;;;9.20;99.90;;;;;;5096234;28;20446;-66
2023/05/04 01:16:02;;;;;;;7.87;3.80;;;9.10;99.90;;;;;;5096284;28;20970;-66
2023/05/04 01:18:29;;;;;;;8.80;3.73;;;9.20;99.90;;;;;;5096756;28;20584;-66
2023/05/04 01:20:55;;;;;;;7.40;3.30;;;9.20;99.90;;;;;;5096286;28;20457;-66
2023/05/04 01:23:25;;;;;;;6.00;4.03;;;9.20;99.90;;;;;;5096714;28;20632;-66
2023/05/04 01:26:00;;;;;;;8.17;3.80;;;9.20;99.90;;;;;;5096081;28;20971;-66
2023/05/04 01:28:32;;;;;;;7.30;3.53;;;9.20;99.90;;;;;;5096106;28;20437;-66
2023/05/04 01:31:01;;;;;;;4.67;3.60;;;9.20;99.90;;;;;;5096236;28;20452;-66
2023/05/04 01:33:30;;;;;;;4.40;3.20;;;9.20;99.90;;;;;;5096007;28;20454;-66
2023/05/04 01:35:58;;;;;;;5.13;3.80;;;9.10;99.90;;;;;;5095841;28;20519;-66
2023/05/04 01:38:26;;;;;;;9.83;3.43;;;9.10;99.90;;;;;;5095609;28;20580;-66
2023/05/04 01:40:53;;;;;;;9.13;3.53;;;9.10;99.90;;;;;;5096122;28;20466;-66
2023/05/04 01:43:20;;;;;;;7.03;3.60;;;9.10;99.90;;;;;;5096246;28;20461;-66
2023/05/04 01:45:47;;;;;;;8.93;4.03;;;9.10;99.90;;;;;;5095860;28;20500;-66
2023/05/04 01:48:13;;;;;;;8.97;4.63;;;9.00;99.90;;;;;;5095976;28;20457;-66
2023/05/04 01:50:41;;;;;;;9.27;5.20;;;9.00;99.90;;;;;;5095662;28;20468;-66
2023/05/04 01:53:07;;;;;;;7.40;4.80;;;9.00;99.90;;;;;;5095908;28;20469;-66
2023/05/04 01:55:35;;;;;;;7.67;5.37;;;9.00;99.90;;;;;;5096169;28;20803;-66
2023/05/04 01:58:02;;;;;;;11.83;5.30;;;9.10;99.90;;;;;;5095925;28;20978;-66
2023/05/04 02:00:29;;;;;;;10.17;4.90;;;9.10;99.90;;;;;;5095950;28;20457;-66
2023/05/04 02:02:56;;;;;;;11.10;5.27;;;9.10;99.90;;;;;;5095853;28;20817;-66
2023/05/04 02:05:23;;;;;;;8.50;4.67;;;8.90;99.90;;;;;;5095719;28;20463;-66
2023/05/04 02:07:50;;;;;;;10.77;5.43;;;8.90;99.90;;;;;;5095675;28;20864;-66
2023/05/04 02:10:17;;;;;;;9.10;5.30;;;8.90;99.90;;;;;;5095630;28;20496;-67
2023/05/04 02:12:45;;;;;;;10.10;5.40;;;9.00;99.90;;;;;;5095828;28;20530;-66
2023/05/04 02:15:12;;;;;;;11.10;5.40;;;8.90;99.90;;;;;;5095864;28;20536;-66
2023/05/04 02:17:39;;;;;;;11.87;5.20;;;9.00;99.90;;;;;;5095138;28;20515;-65
2023/05/04 02:20:08;;;;;;;9.03;5.10;;;9.00;99.90;;;;;;5095239;28;20754;-65
2023/05/04 02:22:35;;;;;;;7.60;5.23;;;9.00;99.90;;;;;;5095144;28;20956;-66
2023/05/04 02:25:02;;;;;;;6.97;4.87;;;9.00;99.90;;;;;;5095265;28;20917;-66
2023/05/04 02:27:29;;;;;;;9.77;4.87;;;9.00;99.90;;;;;;5095011;28;20449;-66
2023/05/04 02:29:57;;;;;;;7.57;4.67;;;9.00;99.90;;;;;;5095024;28;20516;-66
2023/05/04 02:32:24;;;;;;;13.27;5.10;;;9.00;99.90;;;;;;5095071;28;20914;-66
2023/05/04 02:34:51;;;;;;;7.90;4.60;;;9.00;99.90;;;;;;5094602;28;20540;-66
2023/05/04 02:37:18;;;;;;;9.30;4.80;;;9.00;99.90;;;;;;5094589;28;20499;-66
2023/05/04 02:39:45;;;;;;;7.03;4.90;;;9.00;99.90;;;;;;5094421;28;20493;-66
2023/05/04 02:42:12;;;;;;;8.00;4.80;;;9.00;99.90;;;;;;5094871;28;20480;-66
2023/05/04 02:44:39;;;;;;;8.90;4.50;;;9.00;99.90;;;;;;5094577;28;20457;-66
2023/05/04 02:47:07;;;;;;;11.07;5.33;;;9.00;99.90;;;;;;5094273;28;20453;-66
2023/05/04 02:49:34;;;;;;;8.63;5.20;;;8.90;99.90;;;;;;5094591;28;20484;-66
2023/05/04 02:52:01;;;;;;;7.60;5.37;;;8.90;99.90;;;;;;5094857;28;20776;-66
2023/05/04 02:54:28;;;;;;;10.50;5.60;;;8.80;99.90;;;;;;5094419;28;20457;-67
2023/05/04 02:56:55;;;;;;;9.67;5.00;;;8.80;99.90;;;;;;5094421;28;20826;-66
2023/05/04 02:59:22;;;;;;;8.30;4.73;;;8.70;99.90;;;;;;5094758;28;20536;-66
2023/05/04 03:01:48;;;;;;;7.17;4.37;;;8.70;99.90;;;;;;5094204;28;20973;-67
2023/05/04 03:04:17;;;;;;;9.23;4.50;;;8.70;99.90;;;;;;5094528;28;20457;-66
2023/05/04 03:06:43;;;;;;;7.27;3.97;;;8.70;99.90;;;;;;5094327;28;20449;-67
2023/05/04 03:09:11;;;;;;;7.20;4.27;;;8.70;99.90;;;;;;5094230;28;20845;-67
2023/05/04 03:11:38;;;;;;;7.37;4.43;;;8.70;99.90;;;;;;5094291;28;20922;-67
2023/05/04 03:14:05;;;;;;;11.00;6.90;;;8.70;99.90;;;;;;5094253;28;20479;-66
2023/05/04 03:16:32;;;;;;;11.93;8.43;;;8.70;99.90;;;;;;5094240;28;20990;-66
2023/05/04 03:18:59;;;;;;;12.53;8.93;;;8.70;99.90;;;;;;5094381;28;20453;-67
2023/05/04 03:21:28;;;;;;;12.07;8.47;;;8.70;99.90;;;;;;5094436;28;20540;-66
2023/05/04 03:23:54;;;;;;;18.47;12.17;;;8.70;99.90;;;;;;5094534;28;20492;-66
2023/05/04 03:26:21;;;;;;;15.87;10.53;;;8.70;99.90;;;;;;5094044;28;20449;-66
2023/05/04 03:28:48;;;;;;;21.10;11.80;;;8.70;99.90;;;;;;5094145;28;20524;-66
2023/05/04 03:31:15;;;;;;;11.40;6.10;;;8.70;99.90;;;;;;5094284;28;20463;-66
2023/05/04 03:33:42;;;;;;;15.50;10.00;;;8.70;99.90;;;;;;5094617;28;20453;-67
2023/05/04 03:36:09;;;;;;;20.97;14.30;;;8.70;99.90;;;;;;5094911;28;20473;-67
2023/05/04 03:38:37;;;;;;;17.30;11.53;;;8.80;99.90;;;;;;5094310;28;20625;-67
2023/05/04 03:41:03;;;;;;;18.97;10.60;;;8.70;99.90;;;;;;5094823;28;20785;-66
2023/05/04 03:43:30;;;;;;;11.90;8.13;;;8.80;99.90;;;;;;5094844;28;20531;-66
2023/05/04 03:45:57;;;;;;;10.10;5.40;;;8.80;99.90;;;;;;5098661;28;20556;-66
2023/05/04 03:48:24;;;;;;;13.30;10.00;;;8.80;99.90;;;;;;5098558;28;20885;-66
2023/05/04 03:50:51;;;;;;;15.03;11.10;;;8.90;99.90;;;;;;5098704;28;20500;-66
2023/05/04 03:53:18;;;;;;;12.87;8.00;;;8.90;99.90;;;;;;5098939;28;20457;-66
2023/05/04 03:55:46;;;;;;;6.30;4.70;;;8.90;99.90;;;;;;5098665;28;20459;-66
2023/05/04 03:58:13;;;;;;;7.23;3.70;;;8.90;99.90;;;;;;5097981;28;20489;-66
2023/05/04 04:00:40;;;;;;;13.07;4.67;;;9.00;99.90;;;;;;5098395;28;20468;-66
2023/05/04 04:03:07;;;;;;;9.03;4.30;;;9.00;99.90;;;;;;5098343;28;20906;-66
2023/05/04 04:05:34;;;;;;;5.60;3.50;;;9.00;99.90;;;;;;5098292;28;20568;-66
2023/05/04 04:08:01;;;;;;;5.40;3.47;;;9.00;99.90;;;;;;5098997;28;20460;-66
2023/05/04 04:10:27;;;;;;;7.60;3.80;;;9.00;99.90;;;;;;5098075;28;20510;-67
2023/05/04 04:12:56;;;;;;;5.37;3.70;;;9.00;99.90;;;;;;5098670;28;20449;-66
2023/05/04 04:15:23;;;;;;;6.87;4.43;;;9.00;99.90;;;;;;5098187;28;20556;-66
2023/05/04 04:17:49;;;;;;;6.73;4.33;;;9.00;99.90;;;;;;5098484;28;20812;-66
2023/05/04 04:20:16;;;;;;;4.67;3.07;;;9.00;99.90;;;;;;5098426;28;20548;-66
2023/05/04 04:22:43;;;;;;;6.87;3.93;;;8.90;99.90;;;;;;5098400;28;20802;-66
2023/05/04 04:25:11;;;;;;;7.67;3.70;;;9.00;99.90;;;;;;5097577;28;20457;-66
2023/05/04 04:27:37;;;;;;;5.17;3.73;;;9.00;99.90;;;;;;5097596;28;20881;-66
2023/05/04 04:30:07;;;;;;;5.47;4.20;;;9.00;99.90;;;;;;5098103;28;20536;-67
2023/05/04 04:32:34;;;;;;;6.87;4.50;;;9.00;99.90;;;;;;5098046;28;20460;-67
2023/05/04 04:35:01;;;;;;;12.03;3.73;;;9.00;99.90;;;;;;5098089;28;20514;-66
2023/05/04 04:37:28;;;;;;;9.53;3.20;;;9.10;99.90;;;;;;5097936;28;20844;-66
2023/05/04 04:39:54;;;;;;;5.00;3.60;;;9.10;99.90;;;;;;5097740;28;20458;-66
2023/05/04 04:42:21;;;;;;;8.10;4.20;;;9.10;99.90;;;;;;5098272;28;20556;-66
2023/05/04 04:44:49;;;;;;;5.40;3.20;;;9.10;99.90;;;;;;5098139;28;20565;-66
2023/05/04 04:47:17;;;;;;;8.90;3.67;;;9.10;99.90;;;;;;5097462;28;20445;-66
2023/05/04 04:49:44;;;;;;;11.97;5.67;;;9.10;99.90;;;;;;5097847;28;20499;-66
2023/05/04 04:52:11;;;;;;;5.27;3.33;;;9.20;99.90;;;;;;5097264;28;20453;-66
2023/05/04 04:54:38;;;;;;;9.43;4.00;;;9.20;99.90;;;;;;5097140;28;20461;-67
2023/05/04 04:57:05;;;;;;;6.93;4.50;;;9.30;99.90;;;;;;5096977;28;20580;-67
2023/05/04 04:59:31;;;;;;;6.13;3.90;;;9.30;99.90;;;;;;5097438;28;20453;-67
2023/05/04 05:01:59;;;;;;;62.33;40.40;;;9.30;99.90;;;;;;5097256;28;20760;-67
2023/05/04 05:04:27;;;;;;;15.23;9.30;;;9.30;99.90;;;;;;5097105;28;20902;-67
2023/05/04 05:06:54;;;;;;;7.83;4.87;;;9.40;99.90;;;;;;5096831;28;20559;-67
2023/05/04 05:09:21;;;;;;;8.47;6.13;;;9.30;99.90;;;;;;5096924;28;20461;-67
2023/05/04 05:11:48;;;;;;;9.87;5.10;;;9.30;99.90;;;;;;5096530;28;20468;-67
2023/05/04 05:14:14;;;;;;;7.60;4.40;;;9.30;99.90;;;;;;5096987;28;20453;-67
2023/05/04 05:16:41;;;;;;;5.40;4.17;;;9.30;99.90;;;;;;5096582;28;20576;-67
2023/05/04 05:19:08;;;;;;;9.17;4.70;;;9.40;99.90;;;;;;5096728;28;20548;-67
2023/05/04 05:21:36;;;;;;;10.50;3.87;;;9.50;99.90;;;;;;5096609;28;20540;-67
2023/05/04 05:24:04;;;;;;;5.63;3.83;;;9.50;99.90;;;;;;5096753;28;20496;-67
2023/05/04 05:26:31;;;;;;;6.93;4.57;;;9.60;99.90;;;;;;5095953;28;20453;-67
2023/05/04 05:28:57;;;;;;;9.20;4.57;;;9.70;99.90;;;;;;5096272;28;20559;-67
2023/05/04 05:31:24;;;;;;;40.07;25.40;;;9.70;99.90;;;;;;5096664;28;20453;-67
2023/05/04 05:33:51;;;;;;;16.67;10.43;;;9.60;99.90;;;;;;5095901;28;20485;-67
2023/05/04 05:36:18;;;;;;;11.30;5.60;;;9.70;99.90;;;;;;5096044;28;20457;-67
2023/05/04 05:38:46;;;;;;;4.23;3.77;;;9.80;99.90;;;;;;5096218;28;20481;-67
2023/05/04 05:41:14;;;;;;;7.77;4.57;;;9.90;99.90;;;;;;5096350;28;20785;-67
2023/05/04 05:43:41;;;;;;;16.40;5.80;;;9.90;99.90;;;;;;5096573;28;20781;-68
2023/05/04 05:46:07;;;;;;;8.37;4.70;;;9.90;99.90;;;;;;5096303;28;20463;-67
2023/05/04 05:48:34;;;;;;;6.60;4.70;;;10.00;99.90;;;;;;5096015;28;20453;-67
2023/05/04 05:51:01;;;;;;;10.33;4.77;;;10.00;99.90;;;;;;5095850;28;20537;-66
2023/05/04 05:53:28;;;;;;;15.20;4.77;;;10.10;99.90;;;;;;5095749;28;20464;-67
2023/05/04 05:55:56;;;;;;;8.90;4.70;;;10.10;99.90;;;;;;5096166;28;20548;-67
2023/05/04 05:58:23;;;;;;;6.80;4.47;;;10.10;99.90;;;;;;5095497;28;20817;-67
2023/05/04 06:00:50;;;;;;;7.93;4.43;;;10.10;99.90;;;;;;5095802;28;20503;-67
2023/05/04 06:03:17;;;;;;;5.97;4.70;;;10.10;99.90;;;;;;5096008;28;20780;-67
2023/05/04 06:05:44;;;;;;;9.53;4.90;;;10.20;99.90;;;;;;5095771;28;20849;-66
2023/05/04 06:08:10;;;;;;;7.07;4.43;;;10.20;99.90;;;;;;5094279;28;20449;-66
2023/05/04 06:10:38;;;;;;;8.93;4.60;;;10.30;99.90;;;;;;5095582;28;20848;-67
2023/05/04 06:13:07;;;;;;;7.70;4.00;;;10.40;99.90;;;;;;5095664;28;20453;-67
2023/05/04 06:15:35;;;;;;;7.37;4.90;;;10.40;99.90;;;;;;5095597;28;20479;-67
2023/05/04 06:18:02;;;;;;;9.87;5.47;;;10.50;99.90;;;;;;5095426;28;20473;-67
2023/05/04 06:20:29;;;;;;;12.10;4.70;;;10.50;99.90;;;;;;5094910;28;20453;-66
2023/05/04 06:22:57;;;;;;;8.40;5.37;;;10.60;99.90;;;;;;5095386;28;20454;-66
2023/05/04 06:25:24;;;;;;;7.43;4.40;;;10.70;99.90;;;;;;5095093;28;20453;-67
2023/05/04 06:27:51;;;;;;;7.37;3.90;;;10.70;99.90;;;;;;5094950;28;20485;-67
2023/05/04 06:30:23;;;;;;;7.73;4.40;;;10.80;99.90;;;;;;5095338;28;20449;-67
2023/05/04 06:32:50;;;;;;;8.20;4.60;;;10.80;99.90;;;;;;5095351;28;20525;-67
2023/05/04 06:35:17;;;;;;;7.20;4.60;;;10.80;99.90;;;;;;5094925;28;20453;-67
2023/05/04 06:37:44;;;;;;;8.40;4.50;;;10.90;99.90;;;;;;5094745;28;20806;-67
2023/05/04 06:40:12;;;;;;;6.47;4.40;;;10.80;99.90;;;;;;5094507;28;20962;-67
2023/05/04 06:42:39;;;;;;;4.60;4.10;;;10.90;99.90;;;;;;5095092;28;20805;-67
2023/05/04 06:45:07;;;;;;;6.40;4.20;;;11.10;99.90;;;;;;5094868;28;20490;-67
2023/05/04 06:47:36;;;;;;;10.63;4.33;;;11.20;99.90;;;;;;5094844;28;20472;-66
2023/05/04 06:50:08;;;;;;;5.43;4.30;;;11.30;99.90;;;;;;5094776;28;20999;-66
2023/05/04 06:52:35;;;;;;;5.97;4.47;;;11.30;99.90;;;;;;5094716;28;20502;-66
2023/05/04 06:55:02;;;;;;;8.27;4.70;;;11.40;99.90;;;;;;5094828;28;20461;-66
2023/05/04 06:57:29;;;;;;;7.10;4.73;;;11.50;99.90;;;;;;5094696;28;20473;-66
2023/05/04 06:59:56;;;;;;;7.97;5.20;;;11.60;99.90;;;;;;5094688;28;20453;-67
2023/05/04 07:02:23;;;;;;;5.40;3.90;;;11.50;99.90;;;;;;5094903;28;20463;-67
2023/05/04 07:04:52;;;;;;;7.60;4.60;;;11.60;99.90;;;;;;5094615;28;20449;-66
2023/05/04 07:07:19;;;;;;;7.43;5.30;;;11.60;99.90;;;;;;5094893;28;20468;-66
2023/05/04 07:09:47;;;;;;;6.90;4.23;;;11.80;99.90;;;;;;5094692;28;20453;-66
2023/05/04 07:12:14;;;;;;;8.40;4.70;;;11.90;99.90;;;;;;5094436;28;20457;-67
2023/05/04 07:14:40;;;;;;;7.17;4.57;;;11.80;99.90;;;;;;5094343;28;20463;-67
2023/05/04 07:17:08;;;;;;;6.27;4.30;;;11.90;99.90;;;;;;5094291;28;20540;-67
2023/05/04 07:19:35;;;;;;;8.13;4.20;;;12.00;99.90;;;;;;5095642;28;20453;-67
2023/05/04 07:22:04;;;;;;;7.77;4.47;;;12.10;99.90;;;;;;5098048;28;20544;-67
2023/05/04 07:24:31;;;;;;;7.10;4.07;;;12.10;99.90;;;;;;5098289;28;20978;-67
2023/05/04 07:26:58;;;;;;;12.63;5.63;;;12.10;99.90;;;;;;5098633;28;20544;-67
2023/05/04 07:29:25;;;;;;;13.90;5.50;;;12.10;99.90;;;;;;5098731;28;20481;-66
2023/05/04 07:31:52;;;;;;;8.00;4.30;;;12.20;99.90;;;;;;5098575;28;20476;-66
2023/05/04 07:34:18;;;;;;;5.77;4.10;;;12.30;99.90;;;;;;5098827;28;20467;-67
2023/05/04 07:36:45;;;;;;;9.20;4.97;;;12.20;99.90;;;;;;5098154;28;21000;-67
2023/05/04 07:39:15;;;;;;;7.13;4.03;;;12.20;99.90;;;;;;5097624;28;20489;-66
2023/05/04 07:41:42;;;;;;;11.10;3.93;;;12.30;99.90;;;;;;5098449;28;20472;-67
2023/05/04 07:44:10;;;;;;;10.47;4.07;;;12.50;99.90;;;;;;5098373;28;20563;-67
2023/05/04 07:46:37;;;;;;;8.70;4.10;;;12.70;99.90;;;;;;5097749;28;20459;-67
2023/05/04 07:49:04;;;;;;;8.60;3.60;;;12.80;99.90;;;;;;5097576;28;20455;-67
2023/05/04 07:51:31;;;;;;;9.20;4.37;;;12.90;99.90;;;;;;5098177;28;20449;-67
2023/05/04 07:53:57;;;;;;;9.70;4.00;;;12.90;99.90;;;;;;5098222;28;20471;-67
2023/05/04 07:56:26;;;;;;;6.87;3.63;;;13.00;99.90;;;;;;5097901;28;20540;-67
2023/05/04 07:58:52;;;;;;;5.80;3.67;;;13.00;99.90;;;;;;5097802;28;20571;-67
2023/05/04 08:01:19;;;;;;;4.70;3.13;;;13.10;99.90;;;;;;5097911;28;20917;-67
2023/05/04 08:03:47;;;;;;;5.20;3.47;;;13.30;99.90;;;;;;5097513;28;20958;-67
2023/05/04 08:06:14;;;;;;;7.17;3.60;;;13.40;99.90;;;;;;5097552;28;20458;-65
2023/05/04 08:08:41;;;;;;;7.17;4.00;;;13.40;99.90;;;;;;5097769;28;20928;-67
2023/05/04 08:11:12;;;;;;;5.80;3.50;;;13.60;99.90;;;;;;5098020;28;20453;-67
2023/05/04 08:13:40;;;;;;;10.80;3.70;;;13.70;99.90;;;;;;5098130;28;20453;-66
2023/05/04 08:16:08;;;;;;;9.30;3.20;;;13.80;99.90;;;;;;5097883;28;20453;-67
2023/05/04 08:18:35;;;;;;;3.40;2.43;;;13.90;99.90;;;;;;5097514;28;20529;-67
2023/05/04 08:21:03;;;;;;;6.30;3.07;;;13.90;99.90;;;;;;5097443;28;20929;-67
2023/05/04 08:23:30;;;;;;;6.20;3.03;;;14.00;99.90;;;;;;5097724;28;20869;-66
2023/05/04 08:25:57;;;;;;;6.60;3.37;;;14.10;99.90;;;;;;5097396;28;20600;-66
2023/05/04 08:28:24;;;;;;;4.90;3.10;;;14.20;99.60;;;;;;5097498;28;20449;-67
2023/05/04 08:30:52;;;;;;;9.37;3.67;;;14.20;99.00;;;;;;5096259;28;20458;-66
2023/05/04 08:33:19;;;;;;;6.00;2.73;;;14.30;98.90;;;;;;5098378;28;20453;-67
2023/05/04 08:35:46;;;;;;;10.93;3.27;;;14.40;99.20;;;;;;5097710;28;20465;-67
2023/05/04 08:38:13;;;;;;;5.00;3.60;;;14.50;97.80;;;;;;5096905;28;21053;-66
2023/05/04 08:40:41;;;;;;;8.30;3.73;;;14.50;95.90;;;;;;5097373;28;20453;-68
2023/05/04 08:43:08;;;;;;;6.20;2.60;;;14.50;94.90;;;;;;5097048;28;20457;-67
2023/05/04 08:45:37;;;;;;;5.00;2.90;;;14.50;94.20;;;;;;5097277;28;20543;-67
2023/05/04 08:48:06;;;;;;;4.43;2.50;;;14.50;92.40;;;;;;5096780;28;20453;-67
2023/05/04 08:50:33;;;;;;;8.90;3.13;;;14.50;92.60;;;;;;5097168;28;20783;-67
2023/05/04 08:53:02;;;;;;;8.70;3.60;;;14.60;93.30;;;;;;5097849;28;20467;-67
2023/05/04 08:55:30;;;;;;;5.27;3.27;;;14.70;92.00;;;;;;5096804;28;20522;-67
2023/05/04 08:58:01;;;;;;;5.43;3.43;;;14.70;91.10;;;;;;5097017;28;20556;-67
2023/05/04 09:00:29;;;;;;;10.73;4.30;;;14.60;90.50;;;;;;5097054;28;20451;-68
2023/05/04 09:02:58;;;;;;;7.53;3.73;;;14.70;89.80;;;;;;5096799;28;20464;-66
2023/05/04 09:05:26;;;;;;;5.87;2.93;;;14.70;89.30;;;;;;5098015;28;20458;-66
2023/05/04 09:07:53;;;;;;;5.70;3.23;;;14.80;88.40;;;;;;5097312;28;20533;-68
2023/05/04 09:10:20;;;;;;;5.87;3.07;;;14.90;87.60;;;;;;5097256;28;20457;-67
2023/05/04 09:12:49;;;;;;;8.13;3.03;;;14.90;86.20;;;;;;5096722;28;20518;-66
2023/05/04 09:15:17;;;;;;;7.80;4.03;;;15.00;86.80;;;;;;5096912;28;20488;-68
2023/05/04 09:17:44;;;;;;;6.23;3.30;;;15.00;84.80;;;;;;5096233;28;20930;-67
2023/05/04 09:20:12;;;;;;;8.63;3.57;;;15.00;84.70;;;;;;5096596;28;20745;-67
2023/05/04 09:22:40;;;;;;;4.97;3.20;;;15.10;84.10;;;;;;5097021;28;20465;-67
2023/05/04 09:25:09;;;;;;;9.63;3.27;;;15.20;83.30;;;;;;5097132;28;20770;-66
2023/05/04 09:27:37;;;;;;;7.30;4.00;;;15.30;83.70;;;;;;5096352;28;20464;-66
2023/05/04 09:30:04;;;;;;;10.60;3.93;;;15.30;81.20;;;;;;5096213;28;20820;-67
2023/05/04 09:32:31;;;;;;;10.17;3.40;;;15.30;79.30;;;;;;5097141;28;20469;-67
2023/05/04 09:34:58;;;;;;;5.37;2.80;;;15.50;80.20;;;;;;5097071;28;20801;-67
2023/05/04 09:37:25;;;;;;;5.30;2.47;;;15.50;79.40;;;;;;5096564;28;20457;-67
2023/05/04 09:39:54;;;;;;;3.40;3.00;;;15.60;81.00;;;;;;5097325;28;20491;-67
2023/05/04 09:42:22;;;;;;;7.30;2.90;;;15.80;78.60;;;;;;5096992;28;20457;-67
2023/05/04 09:45:03;;;;;;;4.23;3.27;;;16.00;78.10;;;;;;5097788;28;20453;-67
2023/05/04 09:47:34;;;;;;;3.63;3.23;;;16.30;79.40;;;;;;5097265;28;21015;-67
2023/05/04 09:50:13;;;;;;;4.40;2.80;;;16.60;74.70;;;;;;5097157;28;20509;-68
2023/05/04 09:52:41;;;;;;;3.40;2.80;;;16.70;71.60;;;;;;5096935;28;20452;-66
2023/05/04 09:55:12;;;;;;;4.03;3.17;;;16.80;69.00;;;;;;5096994;28;20465;-66
2023/05/04 09:57:41;;;;;;;7.90;5.20;;;16.90;68.00;;;;;;5097328;28;20438;-67
2023/05/04 10:00:10;;;;;;;11.63;2.93;;;16.90;63.60;;;;;;5096381;28;20489;-67
2023/05/04 10:02:37;;;;;;;10.43;4.70;;;17.00;65.20;;;;;;5097219;28;20463;-67
2023/05/04 10:05:06;;;;;;;5.80;3.10;;;17.10;64.20;;;;;;5097358;28;20457;-67
2023/05/04 10:07:33;;;;;;;8.03;3.73;;;17.20;64.90;;;;;;5097022;28;20561;-66
2023/05/04 10:10:00;;;;;;;4.60;3.77;;;17.40;63.40;;;;;;5096768;28;20681;-66
2023/05/04 10:12:28;;;;;;;8.90;4.67;;;17.50;59.40;;;;;;5097033;28;20460;-66
2023/05/04 10:14:55;;;;;;;7.17;3.20;;;17.60;60.20;;;;;;5097348;28;20450;-66
2023/05/04 10:17:34;;;;;;;11.90;3.77;;;17.70;58.60;;;;;;5097580;28;20557;-66
2023/05/04 10:20:17;;;;;;;4.30;3.60;;;17.80;58.60;;;;;;5097072;28;20465;-66
2023/05/04 10:23:01;;;;;;;4.50;3.40;;;17.90;58.80;;;;;;5096972;28;20437;-66
2023/05/04 10:26:02;;;;;;;6.80;3.37;;;18.10;56.60;;;;;;5096871;28;20528;-66
2023/05/04 10:28:45;;;;;;;4.10;2.90;;;18.20;55.50;;;;;;5093544;28;20939;-67
2023/05/04 10:31:12;;;;;;;4.90;3.00;;;18.40;54.80;;;;;;5096882;28;20434;-67
2023/05/04 10:33:39;;;;;;;11.20;3.20;;;18.50;53.50;;;;;;5095508;28;20544;-67
2023/05/04 10:36:07;;;;;;;4.53;2.80;;;18.60;52.90;;;;;;5095869;28;20445;-67
2023/05/04 10:38:35;;;;;;;9.23;3.83;;;18.60;52.50;;;;;;5095340;28;20523;-67
2023/05/04 10:41:13;;;;;;;3.47;3.10;;;18.60;50.20;;;;;;5096115;28;20545;-67
2023/05/04 10:43:47;;;;;;;5.83;3.00;;;18.70;51.40;;;;;;5096430;28;20438;-67
2023/05/04 10:46:21;;;;;;;6.47;3.10;;;18.60;48.10;;;;;;5096715;28;20453;-67
2023/05/04 10:48:48;;;;;;;6.77;3.50;;;18.50;47.60;;;;;;5096697;28;20495;-66
2023/05/04 10:51:19;;;;;;;5.80;3.50;;;18.40;46.90;;;;;;5096541;28;20536;-66
2023/05/04 10:53:46;;;;;;;6.67;3.20;;;18.30;46.80;;;;;;5096265;28;20457;-66
2023/05/04 10:56:23;;;;;;;9.07;3.63;;;18.50;47.80;;;;;;5096414;28;20476;-66
2023/05/04 10:58:52;;;;;;;7.07;3.40;;;18.40;46.50;;;;;;5095917;28;20995;-66
2023/05/04 11:01:20;;;;;;;6.47;3.10;;;18.40;47.10;;;;;;5095576;28;20522;-67
2023/05/04 11:03:47;;;;;;;8.63;3.60;;;18.50;46.00;;;;;;5096636;28;20461;-67
2023/05/04 11:06:20;;;;;;;6.50;2.97;;;18.60;46.10;;;;;;5095906;28;20449;-66
2023/05/04 11:08:48;;;;;;;5.27;3.07;;;18.80;46.60;;;;;;5096088;28;20837;-67
2023/05/04 11:11:15;;;;;;;6.10;3.20;;;18.80;45.20;;;;;;5096055;28;20753;-67
2023/05/04 11:13:45;;;;;;;6.20;3.20;;;18.90;44.30;;;;;;5094952;28;20504;-67
2023/05/04 11:16:22;;;;;;;6.80;3.77;;;19.00;43.90;;;;;;5095616;28;20507;-67
2023/05/04 11:18:49;;;;;;;5.23;3.13;;;19.30;43.60;;;;;;5095721;28;20518;-67
2023/05/04 11:21:23;;;;;;;6.43;3.10;;;19.70;42.80;;;;;;5096008;28;20779;-67
2023/05/04 11:23:54;;;;;;;3.53;2.90;;;20.30;43.80;;;;;;5094495;28;20456;-67
2023/05/04 11:26:21;;;;;;;7.83;3.17;;;21.20;44.50;;;;;;5094677;28;20442;-67
2023/05/04 11:28:48;;;;;;;6.77;3.30;;;22.10;40.20;;;;;;5094120;28;20544;-67
2023/05/04 11:31:18;;;;;;;6.07;3.27;;;22.80;38.30;;;;;;5094324;28;20536;-67
2023/05/04 11:33:46;;;;;;;10.73;2.50;;;23.30;35.00;;;;;;5094184;28;20488;-68
2023/05/04 11:36:14;;;;;;;6.27;2.90;;;23.50;33.30;;;;;;5094532;28;20463;-66
2023/05/04 11:38:41;;;;;;;4.60;2.80;;;23.50;31.30;;;;;;5094549;28;20489;-66
2023/05/04 11:41:09;;;;;;;4.70;3.40;;;23.20;31.10;;;;;;5094695;28;20481;-67
2023/05/04 11:43:36;;;;;;;8.27;3.57;;;23.40;29.90;;;;;;5094841;28;20457;-68
2023/05/04 11:46:06;;;;;;;7.63;3.10;;;23.40;29.30;;;;;;5095314;28;20846;-67
2023/05/04 11:48:35;;;;;;;3.23;2.90;;;22.80;29.70;;;;;;5095720;28;20933;-67
2023/05/04 11:51:02;;;;;;;4.83;3.23;;;22.50;29.90;;;;;;5095240;28;20467;-67
2023/05/04 11:53:37;;;;;;;6.57;2.87;;;23.00;30.20;;;;;;5094759;28;20489;-67
2023/05/04 11:56:05;;;;;;;5.27;3.10;;;23.90;30.40;;;;;;5094042;28;20449;-67
2023/05/04 11:58:32;;;;;;;9.00;3.73;;;24.80;29.20;;;;;;5093462;28;20468;-67
2023/05/04 12:00:59;;;;;;;3.90;2.87;;;25.00;27.90;;;;;;5093634;28;20539;-67
2023/05/04 12:03:28;;;;;;;6.43;3.37;;;25.30;27.00;;;;;;5094012;28;20453;-67
2023/05/04 12:05:57;;;;;;;5.23;3.10;;;25.00;25.90;;;;;;5095700;28;20488;-67
2023/05/04 12:08:25;;;;;;;6.33;3.03;;;24.60;25.80;;;;;;5097323;28;20635;-66
2023/05/04 12:11:08;;;;;;;4.00;2.70;;;24.40;25.90;;;;;;5097231;28;20457;-67
2023/05/04 12:13:36;;;;;;;5.80;3.30;;;24.90;27.10;;;;;;5097552;28;20808;-67
2023/05/04 12:16:10;;;;;;;4.23;3.20;;;25.50;26.40;;;;;;5097741;28;20456;-66
2023/05/04 12:18:37;;;;;;;4.13;2.83;;;26.00;25.90;;;;;;5097642;28;20488;-67
2023/05/04 12:21:12;;;;;;;5.10;3.20;;;26.40;25.70;;;;;;5097782;28;20452;-66
2023/05/04 12:23:40;;;;;;;8.63;3.67;;;26.20;24.10;;;;;;5097456;28;20484;-67
2023/05/04 12:26:08;;;;;;;6.07;3.33;;;26.20;24.40;;;;;;5097408;28;20540;-66
2023/05/04 12:28:35;;;;;;;4.17;3.20;;;26.30;23.90;;;;;;5097292;28;20738;-66
2023/05/04 12:31:03;;;;;;;5.77;2.83;;;26.30;22.40;;;;;;5097085;28;20835;-67
2023/05/04 12:33:30;;;;;;;5.47;3.17;;;26.40;22.90;;;;;;5097132;28;20486;-66
2023/05/04 12:35:58;;;;;;;3.40;2.70;;;26.30;22.80;;;;;;5097182;28;20556;-66
2023/05/04 12:38:27;;;;;;;5.90;3.73;;;26.30;22.90;;;;;;5096651;28;20575;-66
2023/05/04 12:40:54;;;;;;;4.33;3.33;;;26.30;22.90;;;;;;5096875;28;20573;-66
2023/05/04 12:43:22;;;;;;;6.30;3.00;;;26.70;23.70;;;;;;5096938;28;20470;-66
2023/05/04 12:45:50;;;;;;;6.30;3.07;;;27.20;24.50;;;;;;5097134;28;20457;-66
2023/05/04 12:48:19;;;;;;;6.97;3.03;;;27.60;23.00;;;;;;5097019;28;20461;-66
2023/05/04 12:50:46;;;;;;;5.93;2.70;;;27.70;22.10;;;;;;5096720;28;20899;-66
2023/05/04 12:53:13;;;;;;;7.50;3.40;;;27.90;21.20;;;;;;5096944;28;20548;-67